sensor_id;sensor_type;location;lat;lon;timestamp;P1;durP1;ratioP1;P2;durP2;ratioP2
11396;SDS011;5754;43.726;7.416;2022-12-05T00:01:57;1.53;;;0.80;;
11396;SDS011;5754;43.726;7.416;2022-12-05T00:04:34;2.40;;;0.80;;
11396;SDS011;5754;43.726;7.416;2022-12-05T00:07:08;1.33;;;0.70;;
11396;SDS011;5754;43.726;7.416;2022-12-05T00:09:43;1.20;;;1.10;;
11396;SDS011;5754;43.726;7.416;2022-12-05T00:12:17;0.50;;;0.50;;
11396;SDS011;5754;43.726;7.416;2022-12-05T00:14:52;0.67;;;0.67;;
11396;SDS011;5754;43.726;7.416;2022-12-05T00:17:27;1.10;;;0.70;;
11396;SDS011;5754;43.726;7.416;2022-12-05T00:20:01;1.10;;;0.80;;
11396;SDS011;5754;43.726;7.416;2022-12-05T00:22:36;1.10;;;0.73;;
11396;SDS011;5754;43.726;7.416;2022-12-05T00:25:12;0.60;;;0.60;;
11396;SDS011;5754;43.726;7.416;2022-12-05T00:27:46;0.67;;;0.67;;
11396;SDS011;5754;43.726;7.416;2022-12-05T00:30:21;0.70;;;0.60;;
11396;SDS011;5754;43.726;7.416;2022-12-05T00:32:56;0.83;;;0.60;;
11396;SDS011;5754;43.726;7.416;2022-12-05T00:35:31;0.50;;;0.50;;
11396;SDS011;5754;43.726;7.416;2022-12-05T00:38:06;1.43;;;0.83;;
11396;SDS011;5754;43.726;7.416;2022-12-05T00:40:40;0.53;;;0.50;;
11396;SDS011;5754;43.726;7.416;2022-12-05T00:43:15;0.60;;;0.60;;
11396;SDS011;5754;43.726;7.416;2022-12-05T00:45:49;0.70;;;0.70;;
11396;SDS011;5754;43.726;7.416;2022-12-05T00:48:23;0.93;;;0.70;;
11396;SDS011;5754;43.726;7.416;2022-12-05T00:51:05;2.10;;;0.67;;
11396;SDS011;5754;43.726;7.416;2022-12-05T00:53:41;1.20;;;0.80;;
11396;SDS011;5754;43.726;7.416;2022-12-05T00:56:19;0.83;;;0.83;;
11396;SDS011;5754;43.726;7.416;2022-12-05T00:58:54;2.03;;;0.93;;
11396;SDS011;5754;43.726;7.416;2022-12-05T01:01:31;1.87;;;0.80;;
11396;SDS011;5754;43.726;7.416;2022-12-05T01:04:09;1.53;;;0.90;;
11396;SDS011;5754;43.726;7.416;2022-12-05T01:06:44;1.10;;;0.80;;
11396;SDS011;5754;43.726;7.416;2022-12-05T01:12:00;1.03;;;0.80;;
11396;SDS011;5754;43.726;7.416;2022-12-05T01:14:35;0.80;;;0.80;;
11396;SDS011;5754;43.726;7.416;2022-12-05T01:17:09;1.30;;;0.87;;
11396;SDS011;5754;43.726;7.416;2022-12-05T01:19:44;0.80;;;0.70;;
11396;SDS011;5754;43.726;7.416;2022-12-05T01:22:18;0.93;;;0.67;;
11396;SDS011;5754;43.726;7.416;2022-12-05T01:24:53;2.30;;;0.90;;
11396;SDS011;5754;43.726;7.416;2022-12-05T01:27:27;1.37;;;0.83;;
11396;SDS011;5754;43.726;7.416;2022-12-05T01:30:03;0.73;;;0.67;;
11396;SDS011;5754;43.726;7.416;2022-12-05T01:32:38;0.60;;;0.60;;
11396;SDS011;5754;43.726;7.416;2022-12-05T01:35:13;1.53;;;0.70;;
11396;SDS011;5754;43.726;7.416;2022-12-05T01:37:47;0.60;;;0.60;;
11396;SDS011;5754;43.726;7.416;2022-12-05T01:40:22;0.67;;;0.67;;
11396;SDS011;5754;43.726;7.416;2022-12-05T01:42:56;0.70;;;0.70;;
11396;SDS011;5754;43.726;7.416;2022-12-05T01:45:38;0.80;;;0.80;;
11396;SDS011;5754;43.726;7.416;2022-12-05T01:48:17;0.67;;;0.67;;
11396;SDS011;5754;43.726;7.416;2022-12-05T01:50:53;0.70;;;0.70;;
11396;SDS011;5754;43.726;7.416;2022-12-05T01:53:28;0.70;;;0.70;;
11396;SDS011;5754;43.726;7.416;2022-12-05T01:56:04;0.83;;;0.63;;
11396;SDS011;5754;43.726;7.416;2022-12-05T01:58:39;0.80;;;0.60;;
11396;SDS011;5754;43.726;7.416;2022-12-05T02:01:16;1.23;;;0.67;;
11396;SDS011;5754;43.726;7.416;2022-12-05T02:03:53;0.80;;;0.60;;
11396;SDS011;5754;43.726;7.416;2022-12-05T02:06:29;1.10;;;0.73;;
11396;SDS011;5754;43.726;7.416;2022-12-05T02:09:04;0.70;;;0.70;;
11396;SDS011;5754;43.726;7.416;2022-12-05T02:11:50;0.97;;;0.80;;
11396;SDS011;5754;43.726;7.416;2022-12-05T02:14:31;0.80;;;0.80;;
11396;SDS011;5754;43.726;7.416;2022-12-05T02:17:11;0.70;;;0.70;;
11396;SDS011;5754;43.726;7.416;2022-12-05T02:25:44;0.90;;;0.90;;
11396;SDS011;5754;43.726;7.416;2022-12-05T02:31:21;0.70;;;0.60;;
11396;SDS011;5754;43.726;7.416;2022-12-05T02:34:15;2.00;;;0.90;;
11396;SDS011;5754;43.726;7.416;2022-12-05T02:36:56;0.57;;;0.50;;
11396;SDS011;5754;43.726;7.416;2022-12-05T02:39:46;0.70;;;0.70;;
11396;SDS011;5754;43.726;7.416;2022-12-05T02:42:29;0.50;;;0.50;;
11396;SDS011;5754;43.726;7.416;2022-12-05T02:45:07;1.43;;;0.60;;
11396;SDS011;5754;43.726;7.416;2022-12-05T02:47:44;0.60;;;0.60;;
11396;SDS011;5754;43.726;7.416;2022-12-05T02:50:25;1.00;;;0.70;;
11396;SDS011;5754;43.726;7.416;2022-12-05T02:53:02;0.70;;;0.70;;
11396;SDS011;5754;43.726;7.416;2022-12-05T02:55:39;0.60;;;0.60;;
11396;SDS011;5754;43.726;7.416;2022-12-05T02:58:16;0.90;;;0.80;;
11396;SDS011;5754;43.726;7.416;2022-12-05T03:00:54;1.23;;;0.80;;
11396;SDS011;5754;43.726;7.416;2022-12-05T03:03:29;2.70;;;0.90;;
11396;SDS011;5754;43.726;7.416;2022-12-05T03:06:05;0.80;;;0.80;;
11396;SDS011;5754;43.726;7.416;2022-12-05T03:08:42;0.60;;;0.60;;
11396;SDS011;5754;43.726;7.416;2022-12-05T03:11:19;0.90;;;0.80;;
11396;SDS011;5754;43.726;7.416;2022-12-05T03:13:54;1.17;;;0.87;;
11396;SDS011;5754;43.726;7.416;2022-12-05T03:16:33;1.13;;;0.80;;
11396;SDS011;5754;43.726;7.416;2022-12-05T03:19:11;0.80;;;0.80;;
11396;SDS011;5754;43.726;7.416;2022-12-05T03:21:48;0.70;;;0.60;;
11396;SDS011;5754;43.726;7.416;2022-12-05T03:24:25;0.83;;;0.50;;
11396;SDS011;5754;43.726;7.416;2022-12-05T03:33:02;1.77;;;0.70;;
11396;SDS011;5754;43.726;7.416;2022-12-05T03:39:02;1.13;;;1.03;;
11396;SDS011;5754;43.726;7.416;2022-12-05T03:41:40;0.57;;;0.57;;
11396;SDS011;5754;43.726;7.416;2022-12-05T03:44:17;1.40;;;0.70;;
11396;SDS011;5754;43.726;7.416;2022-12-05T03:46:58;0.77;;;0.60;;
11396;SDS011;5754;43.726;7.416;2022-12-05T03:49:39;0.93;;;0.63;;
11396;SDS011;5754;43.726;7.416;2022-12-05T03:52:23;1.57;;;0.80;;
11396;SDS011;5754;43.726;7.416;2022-12-05T03:55:01;1.97;;;1.20;;
11396;SDS011;5754;43.726;7.416;2022-12-05T04:00:58;0.60;;;0.60;;
11396;SDS011;5754;43.726;7.416;2022-12-05T04:03:35;0.90;;;0.73;;
11396;SDS011;5754;43.726;7.416;2022-12-05T04:06:17;0.80;;;0.77;;
11396;SDS011;5754;43.726;7.416;2022-12-05T04:09:00;0.93;;;0.80;;
11396;SDS011;5754;43.726;7.416;2022-12-05T04:11:42;1.53;;;0.70;;
11396;SDS011;5754;43.726;7.416;2022-12-05T04:14:21;1.67;;;0.80;;
11396;SDS011;5754;43.726;7.416;2022-12-05T04:16:59;0.70;;;0.70;;
11396;SDS011;5754;43.726;7.416;2022-12-05T04:19:40;1.40;;;0.90;;
11396;SDS011;5754;43.726;7.416;2022-12-05T04:25:57;2.70;;;1.00;;
11396;SDS011;5754;43.726;7.416;2022-12-05T04:28:37;0.80;;;0.80;;
11396;SDS011;5754;43.726;7.416;2022-12-05T04:31:21;1.73;;;0.90;;
11396;SDS011;5754;43.726;7.416;2022-12-05T04:33:59;0.90;;;0.73;;
11396;SDS011;5754;43.726;7.416;2022-12-05T04:36:49;1.00;;;0.90;;
11396;SDS011;5754;43.726;7.416;2022-12-05T04:39:28;0.90;;;0.90;;
11396;SDS011;5754;43.726;7.416;2022-12-05T04:42:05;1.37;;;0.97;;
11396;SDS011;5754;43.726;7.416;2022-12-05T04:44:52;0.90;;;0.70;;
11396;SDS011;5754;43.726;7.416;2022-12-05T04:47:30;0.70;;;0.70;;
11396;SDS011;5754;43.726;7.416;2022-12-05T04:50:06;0.70;;;0.70;;
11396;SDS011;5754;43.726;7.416;2022-12-05T04:52:44;2.13;;;0.80;;
11396;SDS011;5754;43.726;7.416;2022-12-05T04:55:24;3.00;;;1.00;;
11396;SDS011;5754;43.726;7.416;2022-12-05T04:58:09;1.70;;;0.90;;
11396;SDS011;5754;43.726;7.416;2022-12-05T05:04:41;1.07;;;0.67;;
11396;SDS011;5754;43.726;7.416;2022-12-05T05:07:18;0.80;;;0.80;;
11396;SDS011;5754;43.726;7.416;2022-12-05T05:09:54;1.53;;;0.83;;
11396;SDS011;5754;43.726;7.416;2022-12-05T05:12:29;1.67;;;0.80;;
11396;SDS011;5754;43.726;7.416;2022-12-05T05:15:04;0.90;;;0.90;;
11396;SDS011;5754;43.726;7.416;2022-12-05T05:17:39;1.87;;;0.67;;
11396;SDS011;5754;43.726;7.416;2022-12-05T05:20:14;2.40;;;0.87;;
11396;SDS011;5754;43.726;7.416;2022-12-05T05:22:57;0.80;;;0.80;;
11396;SDS011;5754;43.726;7.416;2022-12-05T05:25:32;0.77;;;0.70;;
11396;SDS011;5754;43.726;7.416;2022-12-05T05:28:06;0.97;;;0.70;;
11396;SDS011;5754;43.726;7.416;2022-12-05T05:30:41;0.80;;;0.80;;
11396;SDS011;5754;43.726;7.416;2022-12-05T05:33:15;0.60;;;0.60;;
11396;SDS011;5754;43.726;7.416;2022-12-05T05:35:51;1.40;;;0.80;;
11396;SDS011;5754;43.726;7.416;2022-12-05T05:38:26;1.20;;;0.90;;
11396;SDS011;5754;43.726;7.416;2022-12-05T05:41:00;0.93;;;0.80;;
11396;SDS011;5754;43.726;7.416;2022-12-05T05:43:35;0.70;;;0.70;;
11396;SDS011;5754;43.726;7.416;2022-12-05T05:46:09;1.13;;;1.07;;
11396;SDS011;5754;43.726;7.416;2022-12-05T05:48:45;1.37;;;0.70;;
11396;SDS011;5754;43.726;7.416;2022-12-05T05:51:19;0.90;;;0.90;;
11396;SDS011;5754;43.726;7.416;2022-12-05T05:53:55;0.80;;;0.80;;
11396;SDS011;5754;43.726;7.416;2022-12-05T05:56:30;1.60;;;1.07;;
11396;SDS011;5754;43.726;7.416;2022-12-05T05:59:04;1.57;;;1.10;;
11396;SDS011;5754;43.726;7.416;2022-12-05T06:01:40;1.27;;;1.10;;
11396;SDS011;5754;43.726;7.416;2022-12-05T06:04:15;0.97;;;0.90;;
11396;SDS011;5754;43.726;7.416;2022-12-05T06:06:49;2.93;;;1.03;;
11396;SDS011;5754;43.726;7.416;2022-12-05T06:09:24;1.33;;;1.17;;
11396;SDS011;5754;43.726;7.416;2022-12-05T06:11:58;1.50;;;1.00;;
11396;SDS011;5754;43.726;7.416;2022-12-05T06:14:33;1.27;;;1.10;;
11396;SDS011;5754;43.726;7.416;2022-12-05T06:17:07;1.30;;;1.10;;
11396;SDS011;5754;43.726;7.416;2022-12-05T06:19:42;1.57;;;1.10;;
11396;SDS011;5754;43.726;7.416;2022-12-05T06:22:17;1.57;;;1.10;;
11396;SDS011;5754;43.726;7.416;2022-12-05T06:24:51;1.40;;;1.20;;
11396;SDS011;5754;43.726;7.416;2022-12-05T06:27:28;2.07;;;1.37;;
11396;SDS011;5754;43.726;7.416;2022-12-05T06:30:03;5.23;;;1.50;;
11396;SDS011;5754;43.726;7.416;2022-12-05T06:32:42;1.20;;;1.10;;
11396;SDS011;5754;43.726;7.416;2022-12-05T06:35:17;1.10;;;1.00;;
11396;SDS011;5754;43.726;7.416;2022-12-05T06:37:51;2.27;;;1.20;;
11396;SDS011;5754;43.726;7.416;2022-12-05T06:40:26;1.40;;;1.23;;
11396;SDS011;5754;43.726;7.416;2022-12-05T06:43:01;2.60;;;1.77;;
11396;SDS011;5754;43.726;7.416;2022-12-05T06:45:38;2.43;;;1.67;;
11396;SDS011;5754;43.726;7.416;2022-12-05T06:48:14;2.63;;;1.40;;
11396;SDS011;5754;43.726;7.416;2022-12-05T06:50:51;2.27;;;1.70;;
11396;SDS011;5754;43.726;7.416;2022-12-05T06:53:26;2.40;;;1.67;;
11396;SDS011;5754;43.726;7.416;2022-12-05T06:56:02;2.60;;;1.70;;
11396;SDS011;5754;43.726;7.416;2022-12-05T06:58:37;2.00;;;1.80;;
11396;SDS011;5754;43.726;7.416;2022-12-05T07:01:12;2.77;;;1.50;;
11396;SDS011;5754;43.726;7.416;2022-12-05T07:04:13;2.67;;;1.47;;
11396;SDS011;5754;43.726;7.416;2022-12-05T07:06:48;2.83;;;1.80;;
11396;SDS011;5754;43.726;7.416;2022-12-05T07:09:25;3.87;;;2.80;;
11396;SDS011;5754;43.726;7.416;2022-12-05T07:12:18;4.30;;;2.93;;
11396;SDS011;5754;43.726;7.416;2022-12-05T07:14:52;5.23;;;3.20;;
11396;SDS011;5754;43.726;7.416;2022-12-05T07:17:27;4.00;;;2.20;;
11396;SDS011;5754;43.726;7.416;2022-12-05T07:20:01;5.20;;;2.20;;
11396;SDS011;5754;43.726;7.416;2022-12-05T07:22:36;7.30;;;3.03;;
11396;SDS011;5754;43.726;7.416;2022-12-05T07:25:11;7.80;;;2.33;;
11396;SDS011;5754;43.726;7.416;2022-12-05T07:27:45;3.63;;;2.00;;
11396;SDS011;5754;43.726;7.416;2022-12-05T07:30:19;3.40;;;1.77;;
11396;SDS011;5754;43.726;7.416;2022-12-05T07:32:54;3.17;;;1.70;;
11396;SDS011;5754;43.726;7.416;2022-12-05T07:35:28;3.27;;;1.63;;
11396;SDS011;5754;43.726;7.416;2022-12-05T07:38:08;2.47;;;1.50;;
11396;SDS011;5754;43.726;7.416;2022-12-05T07:40:42;2.27;;;1.60;;
11396;SDS011;5754;43.726;7.416;2022-12-05T07:43:17;2.47;;;1.40;;
11396;SDS011;5754;43.726;7.416;2022-12-05T07:45:51;2.00;;;1.37;;
11396;SDS011;5754;43.726;7.416;2022-12-05T07:48:27;1.90;;;1.30;;
11396;SDS011;5754;43.726;7.416;2022-12-05T07:51:03;3.17;;;1.30;;
11396;SDS011;5754;43.726;7.416;2022-12-05T07:53:39;1.23;;;1.10;;
11396;SDS011;5754;43.726;7.416;2022-12-05T07:56:18;2.90;;;1.80;;
11396;SDS011;5754;43.726;7.416;2022-12-05T07:58:54;2.70;;;1.30;;
11396;SDS011;5754;43.726;7.416;2022-12-05T08:01:29;2.53;;;1.30;;
11396;SDS011;5754;43.726;7.416;2022-12-05T08:04:03;2.03;;;1.40;;
11396;SDS011;5754;43.726;7.416;2022-12-05T08:06:38;1.30;;;1.07;;
11396;SDS011;5754;43.726;7.416;2022-12-05T08:09:12;3.63;;;1.07;;
11396;SDS011;5754;43.726;7.416;2022-12-05T08:11:46;1.90;;;1.30;;
11396;SDS011;5754;43.726;7.416;2022-12-05T08:14:24;6.23;;;1.50;;
11396;SDS011;5754;43.726;7.416;2022-12-05T08:16:59;2.90;;;1.13;;
11396;SDS011;5754;43.726;7.416;2022-12-05T08:19:33;5.53;;;2.03;;
11396;SDS011;5754;43.726;7.416;2022-12-05T08:22:08;6.60;;;1.67;;
11396;SDS011;5754;43.726;7.416;2022-12-05T08:24:44;2.83;;;1.40;;
11396;SDS011;5754;43.726;7.416;2022-12-05T08:27:18;4.00;;;1.50;;
11396;SDS011;5754;43.726;7.416;2022-12-05T08:29:53;3.90;;;1.60;;
11396;SDS011;5754;43.726;7.416;2022-12-05T08:32:28;4.57;;;1.50;;
11396;SDS011;5754;43.726;7.416;2022-12-05T08:35:04;5.37;;;1.70;;
11396;SDS011;5754;43.726;7.416;2022-12-05T08:37:40;5.67;;;1.70;;
11396;SDS011;5754;43.726;7.416;2022-12-05T08:40:17;3.33;;;1.63;;
11396;SDS011;5754;43.726;7.416;2022-12-05T08:42:53;2.70;;;1.60;;
11396;SDS011;5754;43.726;7.416;2022-12-05T08:45:28;5.13;;;2.30;;
11396;SDS011;5754;43.726;7.416;2022-12-05T08:48:04;5.07;;;4.13;;
11396;SDS011;5754;43.726;7.416;2022-12-05T08:50:39;3.47;;;2.27;;
11396;SDS011;5754;43.726;7.416;2022-12-05T08:53:13;3.50;;;1.90;;
11396;SDS011;5754;43.726;7.416;2022-12-05T08:55:49;2.07;;;1.73;;
11396;SDS011;5754;43.726;7.416;2022-12-05T08:58:23;1.67;;;1.40;;
11396;SDS011;5754;43.726;7.416;2022-12-05T09:01:13;2.97;;;1.60;;
11396;SDS011;5754;43.726;7.416;2022-12-05T09:03:49;4.23;;;1.80;;
11396;SDS011;5754;43.726;7.416;2022-12-05T09:06:23;7.20;;;3.00;;
11396;SDS011;5754;43.726;7.416;2022-12-05T09:08:59;3.53;;;1.70;;
11396;SDS011;5754;43.726;7.416;2022-12-05T09:11:37;4.63;;;1.73;;
11396;SDS011;5754;43.726;7.416;2022-12-05T09:14:13;3.80;;;1.73;;
11396;SDS011;5754;43.726;7.416;2022-12-05T09:16:48;4.30;;;1.40;;
11396;SDS011;5754;43.726;7.416;2022-12-05T09:19:22;6.70;;;1.37;;
11396;SDS011;5754;43.726;7.416;2022-12-05T09:21:59;1.20;;;1.00;;
11396;SDS011;5754;43.726;7.416;2022-12-05T09:24:33;1.58;;;1.17;;
11396;SDS011;5754;43.726;7.416;2022-12-05T09:27:08;1.85;;;1.17;;
11396;SDS011;5754;43.726;7.416;2022-12-05T09:29:42;1.92;;;1.08;;
11396;SDS011;5754;43.726;7.416;2022-12-05T09:32:17;1.50;;;1.30;;
11396;SDS011;5754;43.726;7.416;2022-12-05T09:34:53;1.60;;;1.30;;
11396;SDS011;5754;43.726;7.416;2022-12-05T09:37:28;4.80;;;3.03;;
11396;SDS011;5754;43.726;7.416;2022-12-05T09:40:15;2.28;;;1.70;;
11396;SDS011;5754;43.726;7.416;2022-12-05T09:45:50;2.25;;;1.40;;
11396;SDS011;5754;43.726;7.416;2022-12-05T09:48:27;1.98;;;1.10;;
11396;SDS011;5754;43.726;7.416;2022-12-05T09:51:02;1.30;;;1.20;;
11396;SDS011;5754;43.726;7.416;2022-12-05T09:53:38;1.77;;;1.15;;
11396;SDS011;5754;43.726;7.416;2022-12-05T09:56:31;2.20;;;1.30;;
11396;SDS011;5754;43.726;7.416;2022-12-05T09:59:07;3.62;;;1.48;;
11396;SDS011;5754;43.726;7.416;2022-12-05T10:01:47;2.60;;;1.80;;
11396;SDS011;5754;43.726;7.416;2022-12-05T10:14:15;2.28;;;1.20;;
11396;SDS011;5754;43.726;7.416;2022-12-05T10:16:55;2.05;;;1.23;;
11396;SDS011;5754;43.726;7.416;2022-12-05T10:19:33;3.00;;;1.90;;
11396;SDS011;5754;43.726;7.416;2022-12-05T10:22:20;3.28;;;1.40;;
11396;SDS011;5754;43.726;7.416;2022-12-05T10:25:00;2.90;;;1.35;;
11396;SDS011;5754;43.726;7.416;2022-12-05T10:27:37;2.83;;;1.60;;
11396;SDS011;5754;43.726;7.416;2022-12-05T10:30:17;2.85;;;1.23;;
11396;SDS011;5754;43.726;7.416;2022-12-05T10:32:53;2.12;;;1.42;;
11396;SDS011;5754;43.726;7.416;2022-12-05T10:35:32;1.65;;;1.45;;
11396;SDS011;5754;43.726;7.416;2022-12-05T10:38:23;3.08;;;1.67;;
11396;SDS011;5754;43.726;7.416;2022-12-05T10:41:00;1.50;;;1.30;;
11396;SDS011;5754;43.726;7.416;2022-12-05T10:43:38;2.85;;;1.40;;
11396;SDS011;5754;43.726;7.416;2022-12-05T10:46:14;3.80;;;2.75;;
11396;SDS011;5754;43.726;7.416;2022-12-05T10:48:50;1.90;;;1.48;;
11396;SDS011;5754;43.726;7.416;2022-12-05T10:51:26;2.05;;;1.40;;
11396;SDS011;5754;43.726;7.416;2022-12-05T10:54:04;4.50;;;1.30;;
11396;SDS011;5754;43.726;7.416;2022-12-05T10:56:43;3.95;;;1.65;;
11396;SDS011;5754;43.726;7.416;2022-12-05T10:59:20;3.43;;;1.50;;
11396;SDS011;5754;43.726;7.416;2022-12-05T11:01:56;1.57;;;1.47;;
11396;SDS011;5754;43.726;7.416;2022-12-05T11:04:31;3.57;;;1.60;;
11396;SDS011;5754;43.726;7.416;2022-12-05T11:07:48;3.47;;;1.37;;
11396;SDS011;5754;43.726;7.416;2022-12-05T11:10:30;6.93;;;1.80;;
11396;SDS011;5754;43.726;7.416;2022-12-05T11:13:16;11.53;;;3.90;;
11396;SDS011;5754;43.726;7.416;2022-12-05T11:15:56;9.53;;;4.00;;
11396;SDS011;5754;43.726;7.416;2022-12-05T11:18:31;6.33;;;2.97;;
11396;SDS011;5754;43.726;7.416;2022-12-05T11:21:10;2.43;;;2.00;;
11396;SDS011;5754;43.726;7.416;2022-12-05T11:23:46;3.40;;;2.33;;
11396;SDS011;5754;43.726;7.416;2022-12-05T11:26:35;2.53;;;1.80;;
11396;SDS011;5754;43.726;7.416;2022-12-05T11:38:34;3.47;;;1.60;;
11396;SDS011;5754;43.726;7.416;2022-12-05T11:45:52;4.87;;;2.00;;
11396;SDS011;5754;43.726;7.416;2022-12-05T11:48:38;4.43;;;2.20;;
11396;SDS011;5754;43.726;7.416;2022-12-05T11:57:21;3.50;;;2.67;;
11396;SDS011;5754;43.726;7.416;2022-12-05T12:00:20;4.77;;;2.70;;
11396;SDS011;5754;43.726;7.416;2022-12-05T12:08:55;3.20;;;1.73;;
11396;SDS011;5754;43.726;7.416;2022-12-05T12:11:46;4.53;;;2.00;;
11396;SDS011;5754;43.726;7.416;2022-12-05T12:14:42;3.03;;;2.13;;
11396;SDS011;5754;43.726;7.416;2022-12-05T12:17:38;1.93;;;1.77;;
11396;SDS011;5754;43.726;7.416;2022-12-05T12:36:32;2.77;;;2.17;;
11396;SDS011;5754;43.726;7.416;2022-12-05T12:39:17;4.00;;;2.60;;
11396;SDS011;5754;43.726;7.416;2022-12-05T12:47:51;3.77;;;2.10;;
11396;SDS011;5754;43.726;7.416;2022-12-05T12:50:29;2.77;;;2.33;;
11396;SDS011;5754;43.726;7.416;2022-12-05T12:58:00;4.50;;;2.47;;
11396;SDS011;5754;43.726;7.416;2022-12-05T13:01:00;3.97;;;2.57;;
11396;SDS011;5754;43.726;7.416;2022-12-05T13:03:49;3.30;;;2.50;;
11396;SDS011;5754;43.726;7.416;2022-12-05T13:06:46;4.83;;;2.43;;
11396;SDS011;5754;43.726;7.416;2022-12-05T13:09:25;4.23;;;2.50;;
11396;SDS011;5754;43.726;7.416;2022-12-05T13:12:04;5.77;;;2.67;;
11396;SDS011;5754;43.726;7.416;2022-12-05T13:14:43;4.60;;;2.50;;
11396;SDS011;5754;43.726;7.416;2022-12-05T13:17:20;5.07;;;2.30;;
11396;SDS011;5754;43.726;7.416;2022-12-05T13:19:56;5.40;;;2.40;;
11396;SDS011;5754;43.726;7.416;2022-12-05T13:22:31;4.93;;;2.40;;
11396;SDS011;5754;43.726;7.416;2022-12-05T13:25:11;5.10;;;2.60;;
11396;SDS011;5754;43.726;7.416;2022-12-05T13:27:52;3.73;;;2.73;;
11396;SDS011;5754;43.726;7.416;2022-12-05T13:30:28;4.70;;;2.70;;
11396;SDS011;5754;43.726;7.416;2022-12-05T13:33:05;6.43;;;2.30;;
11396;SDS011;5754;43.726;7.416;2022-12-05T13:35:40;3.07;;;2.03;;
11396;SDS011;5754;43.726;7.416;2022-12-05T13:38:33;4.27;;;2.23;;
11396;SDS011;5754;43.726;7.416;2022-12-05T13:41:39;3.37;;;2.20;;
11396;SDS011;5754;43.726;7.416;2022-12-05T13:44:34;4.30;;;1.90;;
11396;SDS011;5754;43.726;7.416;2022-12-05T13:47:29;4.00;;;2.40;;
11396;SDS011;5754;43.726;7.416;2022-12-05T13:50:22;3.13;;;1.97;;
11396;SDS011;5754;43.726;7.416;2022-12-05T13:53:03;3.40;;;1.90;;
11396;SDS011;5754;43.726;7.416;2022-12-05T13:55:38;3.20;;;2.60;;
11396;SDS011;5754;43.726;7.416;2022-12-05T13:58:38;4.30;;;2.83;;
11396;SDS011;5754;43.726;7.416;2022-12-05T14:04:50;4.47;;;2.30;;
11396;SDS011;5754;43.726;7.416;2022-12-05T14:07:36;3.10;;;2.30;;
11396;SDS011;5754;43.726;7.416;2022-12-05T14:10:13;4.27;;;2.20;;
11396;SDS011;5754;43.726;7.416;2022-12-05T14:12:52;6.03;;;3.20;;
11396;SDS011;5754;43.726;7.416;2022-12-05T14:15:36;2.87;;;1.83;;
11396;SDS011;5754;43.726;7.416;2022-12-05T14:18:19;6.90;;;2.13;;
11396;SDS011;5754;43.726;7.416;2022-12-05T14:21:59;3.73;;;2.33;;
11396;SDS011;5754;43.726;7.416;2022-12-05T14:24:51;4.30;;;2.27;;
11396;SDS011;5754;43.726;7.416;2022-12-05T14:42:03;4.70;;;3.17;;
11396;SDS011;5754;43.726;7.416;2022-12-05T14:44:44;4.30;;;2.27;;
11396;SDS011;5754;43.726;7.416;2022-12-05T14:47:20;4.83;;;2.27;;
11396;SDS011;5754;43.726;7.416;2022-12-05T15:02:19;3.73;;;2.00;;
11396;SDS011;5754;43.726;7.416;2022-12-05T15:04:57;6.30;;;2.43;;
11396;SDS011;5754;43.726;7.416;2022-12-05T15:07:34;3.67;;;2.40;;
11396;SDS011;5754;43.726;7.416;2022-12-05T15:10:43;3.60;;;2.07;;
11396;SDS011;5754;43.726;7.416;2022-12-05T15:13:20;4.73;;;2.43;;
11396;SDS011;5754;43.726;7.416;2022-12-05T15:16:04;6.10;;;2.90;;
11396;SDS011;5754;43.726;7.416;2022-12-05T15:18:43;3.10;;;2.37;;
11396;SDS011;5754;43.726;7.416;2022-12-05T15:21:25;5.50;;;2.27;;
11396;SDS011;5754;43.726;7.416;2022-12-05T15:24:04;6.97;;;2.20;;
11396;SDS011;5754;43.726;7.416;2022-12-05T15:26:40;4.10;;;2.50;;
11396;SDS011;5754;43.726;7.416;2022-12-05T15:29:23;4.90;;;2.40;;
11396;SDS011;5754;43.726;7.416;2022-12-05T15:35:35;4.50;;;2.40;;
11396;SDS011;5754;43.726;7.416;2022-12-05T15:38:12;3.27;;;2.23;;
11396;SDS011;5754;43.726;7.416;2022-12-05T15:40:53;4.80;;;2.27;;
11396;SDS011;5754;43.726;7.416;2022-12-05T15:43:30;4.50;;;2.30;;
11396;SDS011;5754;43.726;7.416;2022-12-05T15:46:21;6.83;;;2.60;;
11396;SDS011;5754;43.726;7.416;2022-12-05T15:48:57;3.83;;;2.13;;
11396;SDS011;5754;43.726;7.416;2022-12-05T15:51:34;3.20;;;2.23;;
11396;SDS011;5754;43.726;7.416;2022-12-05T15:54:11;5.17;;;2.40;;
11396;SDS011;5754;43.726;7.416;2022-12-05T15:56:49;7.83;;;2.50;;
11396;SDS011;5754;43.726;7.416;2022-12-05T15:59:35;5.90;;;2.33;;
11396;SDS011;5754;43.726;7.416;2022-12-05T16:02:14;3.57;;;2.30;;
11396;SDS011;5754;43.726;7.416;2022-12-05T16:04:51;4.43;;;2.63;;
11396;SDS011;5754;43.726;7.416;2022-12-05T16:07:29;3.17;;;2.60;;
11396;SDS011;5754;43.726;7.416;2022-12-05T16:10:05;3.60;;;2.80;;
11396;SDS011;5754;43.726;7.416;2022-12-05T16:12:41;3.73;;;2.60;;
11396;SDS011;5754;43.726;7.416;2022-12-05T16:15:17;4.37;;;2.77;;
11396;SDS011;5754;43.726;7.416;2022-12-05T16:17:59;2.93;;;2.53;;
11396;SDS011;5754;43.726;7.416;2022-12-05T16:20:37;5.90;;;3.10;;
11396;SDS011;5754;43.726;7.416;2022-12-05T16:23:25;4.37;;;3.07;;
11396;SDS011;5754;43.726;7.416;2022-12-05T16:27:02;4.43;;;2.77;;
11396;SDS011;5754;43.726;7.416;2022-12-05T16:29:39;7.73;;;2.83;;
11396;SDS011;5754;43.726;7.416;2022-12-05T16:32:24;4.73;;;2.73;;
11396;SDS011;5754;43.726;7.416;2022-12-05T16:34:59;5.17;;;3.00;;
11396;SDS011;5754;43.726;7.416;2022-12-05T16:37:34;4.77;;;2.70;;
11396;SDS011;5754;43.726;7.416;2022-12-05T16:40:21;3.07;;;2.77;;
11396;SDS011;5754;43.726;7.416;2022-12-05T16:43:00;3.27;;;2.57;;
11396;SDS011;5754;43.726;7.416;2022-12-05T16:45:37;4.07;;;2.60;;
11396;SDS011;5754;43.726;7.416;2022-12-05T16:48:21;5.97;;;2.73;;
11396;SDS011;5754;43.726;7.416;2022-12-05T16:51:17;4.57;;;2.80;;
11396;SDS011;5754;43.726;7.416;2022-12-05T16:53:55;3.53;;;2.50;;
11396;SDS011;5754;43.726;7.416;2022-12-05T16:56:31;3.83;;;3.20;;
11396;SDS011;5754;43.726;7.416;2022-12-05T16:59:06;3.33;;;2.70;;
11396;SDS011;5754;43.726;7.416;2022-12-05T17:01:47;7.10;;;2.87;;
11396;SDS011;5754;43.726;7.416;2022-12-05T17:04:22;5.03;;;2.97;;
11396;SDS011;5754;43.726;7.416;2022-12-05T17:06:57;3.90;;;2.80;;
11396;SDS011;5754;43.726;7.416;2022-12-05T17:09:31;3.83;;;2.57;;
11396;SDS011;5754;43.726;7.416;2022-12-05T17:12:09;4.67;;;3.10;;
11396;SDS011;5754;43.726;7.416;2022-12-05T17:14:45;3.00;;;2.50;;
11396;SDS011;5754;43.726;7.416;2022-12-05T17:17:20;3.73;;;2.50;;
11396;SDS011;5754;43.726;7.416;2022-12-05T17:19:54;3.60;;;2.47;;
11396;SDS011;5754;43.726;7.416;2022-12-05T17:22:29;3.50;;;2.30;;
11396;SDS011;5754;43.726;7.416;2022-12-05T17:25:38;4.20;;;2.80;;
11396;SDS011;5754;43.726;7.416;2022-12-05T17:28:15;4.97;;;2.23;;
11396;SDS011;5754;43.726;7.416;2022-12-05T17:30:50;3.30;;;1.97;;
11396;SDS011;5754;43.726;7.416;2022-12-05T17:33:25;2.90;;;1.80;;
11396;SDS011;5754;43.726;7.416;2022-12-05T17:36:02;2.60;;;1.83;;
11396;SDS011;5754;43.726;7.416;2022-12-05T17:38:41;1.83;;;1.70;;
11396;SDS011;5754;43.726;7.416;2022-12-05T17:41:19;2.10;;;1.60;;
11396;SDS011;5754;43.726;7.416;2022-12-05T17:43:59;1.70;;;1.53;;
11396;SDS011;5754;43.726;7.416;2022-12-05T17:46:36;2.70;;;1.50;;
11396;SDS011;5754;43.726;7.416;2022-12-05T17:49:14;2.03;;;1.73;;
11396;SDS011;5754;43.726;7.416;2022-12-05T17:51:50;2.77;;;1.90;;
11396;SDS011;5754;43.726;7.416;2022-12-05T17:54:53;2.93;;;1.80;;
11396;SDS011;5754;43.726;7.416;2022-12-05T17:57:28;3.20;;;1.77;;
11396;SDS011;5754;43.726;7.416;2022-12-05T18:00:02;3.83;;;2.20;;
11396;SDS011;5754;43.726;7.416;2022-12-05T18:02:40;4.27;;;2.20;;
11396;SDS011;5754;43.726;7.416;2022-12-05T18:05:15;3.17;;;2.40;;
11396;SDS011;5754;43.726;7.416;2022-12-05T18:07:50;2.60;;;2.13;;
11396;SDS011;5754;43.726;7.416;2022-12-05T18:10:25;3.07;;;2.30;;
11396;SDS011;5754;43.726;7.416;2022-12-05T18:12:59;3.57;;;2.30;;
11396;SDS011;5754;43.726;7.416;2022-12-05T18:15:34;3.77;;;2.40;;
11396;SDS011;5754;43.726;7.416;2022-12-05T18:18:14;4.87;;;2.13;;
11396;SDS011;5754;43.726;7.416;2022-12-05T18:20:49;3.13;;;2.27;;
11396;SDS011;5754;43.726;7.416;2022-12-05T18:23:27;2.03;;;1.80;;